createdAt,value
2018-04-17T00:02:23.131Z,9.10
2018-04-17T00:04:50.852Z,9.30
2018-04-17T00:07:19.550Z,9.80
2018-04-17T00:09:48.416Z,9.00
2018-04-17T00:12:17.649Z,9.00
2018-04-17T00:14:45.361Z,8.90
2018-04-17T00:17:14.413Z,9.00
2018-04-17T00:19:42.493Z,9.00
2018-04-17T00:22:11.632Z,8.90
2018-04-17T00:24:39.799Z,8.90
2018-04-17T00:27:07.907Z,8.80
2018-04-17T00:29:36.778Z,8.70
2018-04-17T00:32:14.749Z,8.60
2018-04-17T00:34:42.458Z,8.80
2018-04-17T00:37:26.851Z,8.50
2018-04-17T00:39:54.577Z,8.80
2018-04-17T00:42:26.477Z,8.60
2018-04-17T00:44:54.583Z,8.90
2018-04-17T00:47:23.045Z,8.50
2018-04-17T00:49:51.221Z,8.30
2018-04-17T00:52:20.945Z,8.50
2018-04-17T00:54:49.114Z,8.50
2018-04-17T00:57:20.571Z,8.20
2018-04-17T00:59:49.053Z,8.40
2018-04-17T01:02:23.857Z,8.40
2018-04-17T01:04:52.000Z,8.30
2018-04-17T01:07:31.560Z,8.20
2018-04-17T01:10:00.016Z,8.30
2018-04-17T01:12:29.624Z,9.10
2018-04-17T01:14:58.135Z,8.20
2018-04-17T01:17:26.253Z,8.00
2018-04-17T01:19:53.956Z,8.40
2018-04-17T01:24:52.713Z,8.20
2018-04-17T01:27:33.082Z,8.10
2018-04-17T01:30:01.174Z,8.00
2018-04-17T01:32:41.392Z,8.10
2018-04-17T01:35:09.889Z,7.90
2018-04-17T01:37:39.515Z,7.80
2018-04-17T01:40:07.213Z,8.00
2018-04-17T01:42:35.916Z,8.00
2018-04-17T01:45:04.556Z,7.70
2018-04-17T01:47:38.660Z,7.70
2018-04-17T01:50:06.393Z,7.70
2018-04-17T01:52:36.888Z,7.60
2018-04-17T01:55:04.724Z,7.80
2018-04-17T01:57:35.238Z,7.60
2018-04-17T02:00:02.985Z,7.70
2018-04-17T02:02:36.939Z,7.60
2018-04-17T02:07:39.581Z,7.50
2018-04-17T02:10:08.060Z,7.50
2018-04-17T02:12:43.896Z,7.20
2018-04-17T02:15:11.569Z,7.40
2018-04-17T02:17:57.310Z,7.30
2018-04-17T02:20:25.087Z,7.30
2018-04-17T02:22:54.142Z,7.20
2018-04-17T02:25:22.282Z,7.00
2018-04-17T02:28:06.439Z,7.00
2018-04-17T02:30:34.916Z,7.00
2018-04-17T02:33:06.693Z,6.90
2018-04-17T02:35:34.800Z,6.80
2018-04-17T02:38:10.057Z,6.60
2018-04-17T02:40:38.537Z,6.80
2018-04-17T02:43:20.861Z,6.70
2018-04-17T02:45:48.944Z,7.30
2018-04-17T02:48:17.384Z,6.80
2018-04-17T02:50:45.176Z,6.90
2018-04-17T02:53:14.923Z,6.80
2018-04-17T02:55:42.632Z,6.70
2018-04-17T02:58:10.770Z,7.90
2018-04-17T03:00:38.472Z,6.80
2018-04-17T03:03:15.030Z,6.80
2018-04-17T03:05:42.757Z,6.40
2018-04-17T03:08:11.182Z,6.90
2018-04-17T03:10:40.374Z,6.90
2018-04-17T03:13:13.991Z,7.00
2018-04-17T03:15:41.680Z,6.90
2018-04-17T03:18:17.040Z,6.80
2018-04-17T03:20:45.900Z,6.70
2018-04-17T03:23:15.384Z,6.70
2018-04-17T03:25:45.017Z,6.70
2018-04-17T03:28:30.968Z,6.60
2018-04-17T03:30:58.661Z,7.20
2018-04-17T03:33:28.869Z,6.60
2018-04-17T03:35:56.978Z,6.10
2018-04-17T03:38:26.879Z,6.60
2018-04-17T03:40:54.955Z,7.10
2018-04-17T03:43:24.505Z,6.60
2018-04-17T03:45:52.659Z,6.60
2018-04-17T03:48:28.435Z,6.60
2018-04-17T03:50:56.662Z,6.60
2018-04-17T03:53:24.813Z,6.50
2018-04-17T03:55:52.471Z,6.90
2018-04-17T04:00:49.668Z,7.00
2018-04-17T04:03:19.876Z,6.80
2018-04-17T04:05:48.370Z,6.80
2018-04-17T04:08:18.828Z,6.70
2018-04-17T04:10:46.558Z,6.70
2018-04-17T04:13:14.296Z,6.40
2018-04-17T04:15:42.831Z,6.70
2018-04-17T04:21:32.265Z,6.80
2018-04-17T04:24:24.112Z,6.80
2018-04-17T04:26:52.630Z,6.80
2018-04-17T04:29:30.296Z,7.00
2018-04-17T04:31:58.769Z,6.80
2018-04-17T04:34:29.367Z,6.70
2018-04-17T04:36:57.882Z,6.70
2018-04-17T04:39:28.365Z,6.70
2018-04-17T04:41:56.069Z,6.80
2018-04-17T04:44:30.332Z,6.70
2018-04-17T04:46:57.999Z,6.70
2018-04-17T04:49:28.204Z,6.80
2018-04-17T04:51:56.666Z,6.80
2018-04-17T04:54:24.769Z,6.00
2018-04-17T04:56:52.445Z,7.00
2018-04-17T04:59:21.569Z,6.90
2018-04-17T05:01:50.066Z,6.90
2018-04-17T05:04:18.191Z,6.90
2018-04-17T05:06:46.012Z,7.00
2018-04-17T05:09:15.679Z,7.00
2018-04-17T05:11:43.788Z,7.20
2018-04-17T05:14:12.942Z,7.30
2018-04-17T05:16:41.080Z,7.30
2018-04-17T05:19:10.677Z,7.30
2018-04-17T05:21:39.128Z,7.40
2018-04-17T05:24:07.668Z,7.40
2018-04-17T05:26:35.434Z,7.40
2018-04-17T05:29:14.609Z,7.30
2018-04-17T05:31:43.110Z,7.40
2018-04-17T05:34:15.715Z,7.60
2018-04-17T05:36:44.174Z,7.50
2018-04-17T05:42:06.457Z,7.70
2018-04-17T05:44:34.191Z,7.50
2018-04-17T05:47:02.321Z,8.00
2018-04-17T05:49:31.602Z,7.80
2018-04-17T05:52:04.322Z,7.80
2018-04-17T05:54:33.592Z,7.90
2018-04-17T05:57:07.343Z,8.10
2018-04-17T05:59:35.108Z,8.30
2018-04-17T06:02:06.200Z,8.00
2018-04-17T06:04:33.849Z,8.30
2018-04-17T06:07:09.417Z,8.60
2018-04-17T06:09:37.902Z,8.60
2018-04-17T06:12:05.909Z,8.40
2018-04-17T06:14:34.064Z,8.60
2018-04-17T06:17:02.608Z,8.90
2018-04-17T06:19:30.308Z,9.40
2018-04-17T06:21:59.420Z,9.20
2018-04-17T06:24:27.505Z,9.30
2018-04-17T06:26:55.295Z,9.50
2018-04-17T06:29:23.389Z,9.50
2018-04-17T06:31:54.545Z,9.50
2018-04-17T06:34:22.957Z,9.20
2018-04-17T06:36:50.706Z,9.20
2018-04-17T06:39:19.129Z,9.50
2018-04-17T06:41:47.914Z,9.50
2018-04-17T06:44:15.637Z,9.90
2018-04-17T06:46:44.372Z,9.90
2018-04-17T06:49:12.469Z,10.00
2018-04-17T06:51:40.249Z,9.90
2018-04-17T06:54:08.737Z,10.30
2018-04-17T06:56:36.465Z,10.20
2018-04-17T06:59:04.975Z,10.50
2018-04-17T07:01:34.421Z,10.50
2018-04-17T07:04:02.912Z,10.50
2018-04-17T07:06:32.039Z,10.60
2018-04-17T07:08:59.768Z,10.80
2018-04-17T07:11:28.892Z,10.50
2018-04-17T07:13:56.559Z,10.90
2018-04-17T07:16:26.309Z,10.80
2018-04-17T07:18:54.011Z,11.20
2018-04-17T07:21:28.213Z,11.40
2018-04-17T07:23:55.977Z,11.50
2018-04-17T07:26:28.177Z,11.80
2018-04-17T07:28:56.714Z,12.00
2018-04-17T07:31:32.388Z,12.10
2018-04-17T07:34:00.117Z,12.10
2018-04-17T07:36:31.383Z,12.30
2018-04-17T07:38:59.057Z,12.20
2018-04-17T07:41:27.775Z,12.50
2018-04-17T07:43:56.006Z,12.70
2018-04-17T07:46:26.530Z,13.00
2018-04-17T07:48:54.278Z,12.90
2018-04-17T07:51:22.022Z,13.80
2018-04-17T07:53:51.670Z,13.40
2018-04-17T07:56:19.409Z,13.70
2018-04-17T07:58:49.233Z,13.90
2018-04-17T08:01:16.937Z,14.10
2018-04-17T08:03:46.078Z,14.00
2018-04-17T08:06:13.786Z,14.40
2018-04-17T08:08:42.704Z,14.50
2018-04-17T08:11:11.180Z,14.60
2018-04-17T08:13:39.857Z,14.60
2018-04-17T08:16:07.609Z,15.10
2018-04-17T08:18:42.680Z,15.40
2018-04-17T08:21:11.531Z,15.10
2018-04-17T08:23:44.175Z,15.20
2018-04-17T08:26:11.870Z,15.40
2018-04-17T08:28:42.643Z,15.70
2018-04-17T08:31:11.232Z,15.50
2018-04-17T08:33:41.692Z,15.80
2018-04-17T08:36:09.345Z,15.60
2018-04-17T08:38:38.297Z,16.30
2018-04-17T08:41:07.584Z,16.00
2018-04-17T08:43:38.741Z,16.10
2018-04-17T08:46:07.276Z,16.20
2018-04-17T08:48:37.044Z,16.10
2018-04-17T08:51:05.565Z,16.40
2018-04-17T08:53:38.271Z,16.40
2018-04-17T08:56:06.000Z,16.80
2018-04-17T08:58:38.755Z,16.70
2018-04-17T09:01:06.481Z,16.50
2018-04-17T09:03:38.848Z,16.60
2018-04-17T09:06:06.550Z,16.70
2018-04-17T09:08:40.932Z,16.50
2018-04-17T09:11:08.722Z,17.00
2018-04-17T09:13:37.656Z,17.20
2018-04-17T09:16:05.405Z,17.50
2018-04-17T09:18:41.066Z,17.40
2018-04-17T09:21:08.727Z,17.80
2018-04-17T09:23:42.308Z,17.50
2018-04-17T09:26:10.025Z,18.20
2018-04-17T09:28:57.048Z,18.40
2018-04-17T09:31:24.755Z,18.40
2018-04-17T09:34:00.361Z,19.20
2018-04-17T09:36:28.104Z,18.80
2018-04-17T09:39:07.041Z,19.40
2018-04-17T09:41:35.161Z,18.60
2018-04-17T09:46:57.212Z,19.40
2018-04-17T09:49:25.708Z,19.60
2018-04-17T09:51:54.461Z,19.50
2018-04-17T09:54:22.922Z,19.00
2018-04-17T09:57:15.435Z,19.30
2018-04-17T09:59:43.256Z,18.80
2018-04-17T10:04:54.660Z,19.40
2018-04-17T10:07:36.840Z,19.40
2018-04-17T10:10:05.512Z,19.40
2018-04-17T10:12:41.498Z,20.00
2018-04-17T10:15:09.920Z,20.00
2018-04-17T10:17:40.734Z,19.80
2018-04-17T10:20:08.405Z,19.70
2018-04-17T10:25:29.488Z,19.90
2018-04-17T10:27:57.706Z,20.20
2018-04-17T10:30:30.525Z,19.40
2018-04-17T10:32:58.217Z,19.90
2018-04-17T10:35:28.595Z,20.10
2018-04-17T10:37:56.268Z,20.30
2018-04-17T10:40:45.963Z,20.10
2018-04-17T10:43:13.606Z,20.00
2018-04-17T10:45:47.334Z,20.20
2018-04-17T10:48:15.564Z,20.30
2018-04-17T10:50:56.749Z,19.90
2018-04-17T10:53:24.645Z,20.90
2018-04-17T10:55:57.208Z,20.20
2018-04-17T10:58:29.469Z,20.50
2018-04-17T11:01:00.260Z,20.60
2018-04-17T11:03:28.078Z,20.60
2018-04-17T11:06:07.083Z,20.50
2018-04-17T11:08:35.212Z,19.90
2018-04-17T11:11:09.177Z,20.40
2018-04-17T11:13:37.254Z,20.90
2018-04-17T11:16:06.088Z,20.30
2018-04-17T11:18:34.548Z,19.90
2018-04-17T11:21:13.032Z,20.40
2018-04-17T11:23:40.746Z,19.90
2018-04-17T11:26:19.414Z,20.30
2018-04-17T11:28:47.116Z,20.40
2018-04-17T11:31:25.119Z,20.70
2018-04-17T11:33:53.540Z,20.60
2018-04-17T11:36:45.334Z,20.60
2018-04-17T11:39:13.948Z,20.70
2018-04-17T11:44:38.766Z,20.60
2018-04-17T11:47:06.475Z,20.80
2018-04-17T11:49:40.869Z,21.00
2018-04-17T11:52:08.579Z,21.00
2018-04-17T11:54:37.434Z,21.20
2018-04-17T11:57:05.150Z,21.10
2018-04-17T11:59:36.455Z,21.20
2018-04-17T12:02:05.169Z,21.10
2018-04-17T12:07:02.109Z,20.30
2018-04-17T12:09:42.282Z,20.50
2018-04-17T12:12:10.030Z,20.30
2018-04-17T12:14:49.327Z,20.80
2018-04-17T12:17:17.052Z,20.70
2018-04-17T12:19:50.268Z,21.20
2018-04-17T12:22:18.028Z,21.90
2018-04-17T12:24:45.853Z,22.30
2018-04-17T12:27:13.890Z,21.60
2018-04-17T12:29:42.625Z,21.70
2018-04-17T12:32:10.338Z,21.40
2018-04-17T12:34:40.416Z,21.40
2018-04-17T12:37:08.071Z,21.30
2018-04-17T12:39:40.161Z,21.80
2018-04-17T12:42:08.261Z,21.90
2018-04-17T12:44:47.819Z,22.50
2018-04-17T12:47:16.009Z,22.80
2018-04-17T12:49:50.456Z,22.50
2018-04-17T12:52:18.320Z,21.70
2018-04-17T12:54:58.085Z,21.30
2018-04-17T12:57:26.172Z,21.90
2018-04-17T12:59:55.899Z,22.70
2018-04-17T13:02:23.681Z,22.60
2018-04-17T13:05:02.577Z,22.80
2018-04-17T13:07:30.369Z,22.90
2018-04-17T13:10:12.559Z,22.50
2018-04-17T13:12:40.287Z,22.30
2018-04-17T13:15:16.024Z,22.20
2018-04-17T13:17:44.553Z,22.20
2018-04-17T13:20:19.085Z,22.00
2018-04-17T13:22:46.885Z,22.50
2018-04-17T13:25:20.987Z,23.10
2018-04-17T13:27:49.036Z,23.00
2018-04-17T13:30:36.041Z,22.80
2018-04-17T13:33:04.042Z,22.20
2018-04-17T13:35:42.914Z,22.20
2018-04-17T13:38:10.642Z,22.10
2018-04-17T13:40:45.251Z,22.90
2018-04-17T13:43:13.723Z,23.20
2018-04-17T13:45:45.830Z,23.30
2018-04-17T13:48:13.550Z,23.70
2018-04-17T13:50:47.636Z,24.00
2018-04-17T13:53:15.380Z,24.70
2018-04-17T13:55:55.637Z,25.30
2018-04-17T13:58:23.363Z,24.00
2018-04-17T14:00:58.384Z,24.40
2018-04-17T14:05:57.272Z,25.00
2018-04-17T14:08:25.050Z,23.80
2018-04-17T14:10:54.092Z,24.70
2018-04-17T14:13:22.573Z,25.30
2018-04-17T14:16:09.317Z,26.80
2018-04-17T14:18:37.490Z,26.90
2018-04-17T14:21:13.708Z,26.00
2018-04-17T14:23:41.393Z,25.20
2018-04-17T14:29:20.065Z,24.60
2018-04-17T14:31:48.572Z,24.70
2018-04-17T14:34:17.220Z,24.80
2018-04-17T14:36:44.892Z,25.10
2018-04-17T14:39:12.628Z,26.30
2018-04-17T14:41:41.379Z,27.40
2018-04-17T14:44:09.082Z,28.30
2018-04-17T14:52:27.291Z,28.50
2018-04-17T14:54:55.775Z,29.40
2018-04-17T14:57:24.243Z,30.40
2018-04-17T14:59:51.982Z,30.40
2018-04-17T15:02:34.640Z,30.20
2018-04-17T15:05:02.753Z,29.80
2018-04-17T15:07:48.889Z,31.30
2018-04-17T15:10:17.386Z,30.70
2018-04-17T15:12:46.390Z,30.10
2018-04-17T15:15:14.512Z,30.20
2018-04-17T15:23:30.649Z,31.40
2018-04-17T15:25:59.861Z,30.90
2018-04-17T15:28:46.209Z,29.50
2018-04-17T15:31:13.937Z,30.40
2018-04-17T15:33:54.243Z,29.70
2018-04-17T15:36:22.348Z,29.10
2018-04-17T15:39:01.863Z,28.70
2018-04-17T15:41:29.603Z,28.50
2018-04-17T15:44:18.221Z,28.50
2018-04-17T15:46:47.601Z,28.20
2018-04-17T15:49:28.555Z,28.00
2018-04-17T15:51:56.544Z,27.90
2018-04-17T15:54:33.684Z,28.30
2018-04-17T15:57:02.522Z,28.80
2018-04-17T15:59:33.530Z,28.50
2018-04-17T16:02:01.641Z,27.20
2018-04-17T16:04:54.251Z,26.90
2018-04-17T16:07:21.928Z,26.00
2018-04-17T16:10:02.800Z,25.80
2018-04-17T16:12:30.929Z,25.30
2018-04-17T16:15:07.879Z,25.80
2018-04-17T16:17:36.721Z,25.40
2018-04-17T16:20:06.835Z,25.50
2018-04-17T16:22:34.699Z,25.30
2018-04-17T16:25:03.869Z,24.90
2018-04-17T16:27:31.594Z,24.60
2018-04-17T16:30:22.734Z,24.40
2018-04-17T16:32:50.450Z,23.90
2018-04-17T16:35:19.605Z,23.70
2018-04-17T16:37:47.297Z,23.60
2018-04-17T16:40:20.469Z,23.80
2018-04-17T16:42:48.201Z,23.60
2018-04-17T16:45:23.638Z,23.60
2018-04-17T16:47:52.130Z,23.60
2018-04-17T16:50:20.627Z,23.60
2018-04-17T16:52:48.388Z,23.50
2018-04-17T16:55:17.948Z,22.90
2018-04-17T16:57:45.628Z,22.20
2018-04-17T17:00:18.333Z,22.40
2018-04-17T17:02:46.440Z,22.00
2018-04-17T17:05:14.110Z,21.50
2018-04-17T17:07:42.021Z,20.90
2018-04-17T17:10:10.596Z,21.00
2018-04-17T17:12:39.024Z,20.80
2018-04-17T17:15:11.267Z,21.00
2018-04-17T17:17:39.102Z,21.40
2018-04-17T17:20:26.207Z,20.30
2018-04-17T17:22:54.043Z,20.90
2018-04-17T17:25:33.714Z,20.30
2018-04-17T17:28:01.425Z,19.90
2018-04-17T17:30:43.804Z,19.90
2018-04-17T17:33:11.986Z,20.30
2018-04-17T17:35:43.657Z,20.30
2018-04-17T17:38:11.437Z,20.60
2018-04-17T17:40:44.414Z,20.10
2018-04-17T17:43:12.160Z,20.20
2018-04-17T17:46:00.190Z,19.70
2018-04-17T17:48:28.660Z,19.70
2018-04-17T17:50:57.459Z,19.80
2018-04-17T17:53:25.908Z,19.60
2018-04-17T17:55:58.645Z,19.40
2018-04-17T17:58:27.119Z,19.40
2018-04-17T18:03:49.103Z,19.00
2018-04-17T18:06:16.861Z,19.00
2018-04-17T18:08:45.637Z,18.70
2018-04-17T18:11:13.439Z,18.90
2018-04-17T18:16:11.244Z,18.80
2018-04-17T18:18:39.940Z,18.50
2018-04-17T18:21:08.358Z,18.10
2018-04-17T18:23:39.813Z,17.70
2018-04-17T18:26:07.486Z,18.00
2018-04-17T18:28:38.326Z,18.00
2018-04-17T18:31:07.567Z,17.60
2018-04-17T18:33:38.012Z,17.50
2018-04-17T18:36:05.778Z,17.60
2018-04-17T18:38:35.500Z,17.40
2018-04-17T18:41:03.164Z,17.00
2018-04-17T18:43:34.564Z,17.30
2018-04-17T18:46:02.316Z,17.30
2018-04-17T18:48:37.879Z,16.90
2018-04-17T18:51:07.900Z,16.70
2018-04-17T18:53:41.907Z,16.80
2018-04-17T18:56:13.770Z,16.60
2018-04-17T18:58:42.267Z,16.50
2018-04-17T19:04:05.533Z,16.30
2018-04-17T19:06:33.977Z,16.20
2018-04-17T19:09:01.688Z,16.10
2018-04-17T19:11:29.939Z,16.10
2018-04-17T19:13:58.339Z,15.90
2018-04-17T19:16:26.798Z,15.80
2018-04-17T19:21:55.894Z,15.70
2018-04-17T19:24:23.577Z,15.40
2018-04-17T19:27:09.527Z,15.50
2018-04-17T19:29:37.348Z,15.40
2018-04-17T19:32:07.843Z,15.20
2018-04-17T19:34:35.562Z,15.20
2018-04-17T19:37:05.203Z,15.20
2018-04-17T19:39:33.684Z,15.00
2018-04-17T19:42:07.049Z,14.50
2018-04-17T19:44:35.509Z,14.90
2018-04-17T19:47:03.295Z,14.80
2018-04-17T19:49:31.020Z,14.40
2018-04-17T19:52:06.728Z,14.60
2018-04-17T19:54:34.791Z,14.50
2018-04-17T19:57:08.621Z,14.30
2018-04-17T19:59:36.360Z,14.60
2018-04-17T20:02:05.076Z,14.20
2018-04-17T20:04:32.808Z,14.10
2018-04-17T20:07:03.694Z,13.80
2018-04-17T20:09:32.149Z,14.10
2018-04-17T20:12:03.436Z,14.00
2018-04-17T20:14:31.941Z,14.00
2018-04-17T20:17:15.302Z,13.90
2018-04-17T20:19:43.366Z,13.80
2018-04-17T20:22:23.927Z,13.90
2018-04-17T20:24:51.938Z,14.50
2018-04-17T20:27:20.541Z,13.70
2018-04-17T20:29:48.273Z,13.70
2018-04-17T20:32:26.551Z,13.60
2018-04-17T20:34:54.634Z,13.60
2018-04-17T20:37:36.142Z,13.60
2018-04-17T20:40:03.901Z,13.60
2018-04-17T20:42:32.670Z,14.00
2018-04-17T20:45:00.421Z,13.40
2018-04-17T20:47:28.116Z,13.50
2018-04-17T20:49:56.260Z,13.50
2018-04-17T20:52:28.685Z,13.20
2018-04-17T20:54:57.191Z,13.20
2018-04-17T20:57:24.905Z,13.60
2018-04-17T20:59:52.562Z,13.30
2018-04-17T21:02:21.418Z,13.20
2018-04-17T21:04:49.515Z,12.60
2018-04-17T21:07:19.252Z,13.10
2018-04-17T21:09:47.721Z,12.90
2018-04-17T21:12:30.481Z,12.60
2018-04-17T21:14:58.604Z,14.30
2018-04-17T21:17:38.812Z,12.80
2018-04-17T21:20:06.523Z,12.70
2018-04-17T21:22:40.103Z,12.80
2018-04-17T21:27:44.392Z,12.70
2018-04-17T21:30:12.077Z,12.50
2018-04-17T21:32:45.594Z,12.60
2018-04-17T21:35:13.311Z,12.70
2018-04-17T21:37:41.101Z,12.50
2018-04-17T21:40:09.217Z,12.70
2018-04-17T21:42:40.689Z,12.50
2018-04-17T21:45:09.105Z,12.50
2018-04-17T21:50:31.747Z,12.50
2018-04-17T21:52:59.450Z,12.50
2018-04-17T21:55:29.022Z,12.50
2018-04-17T21:57:56.743Z,12.70
2018-04-17T22:00:32.012Z,12.50
2018-04-17T22:03:00.470Z,12.40
2018-04-17T22:05:29.168Z,12.40
2018-04-17T22:07:57.683Z,12.40
2018-04-17T22:10:29.811Z,12.50
2018-04-17T22:12:58.433Z,12.40
2018-04-17T22:15:27.868Z,12.30
2018-04-17T22:17:55.568Z,12.00
2018-04-17T22:20:24.119Z,12.10
2018-04-17T22:22:52.256Z,12.10
2018-04-17T22:25:22.761Z,12.00
2018-04-17T22:27:50.443Z,12.00
2018-04-17T22:30:27.261Z,11.70
2018-04-17T22:32:55.017Z,11.70
2018-04-17T22:35:39.719Z,11.50
2018-04-17T22:38:07.453Z,11.80
2018-04-17T22:40:41.373Z,11.60
2018-04-17T22:43:09.104Z,11.60
2018-04-17T22:45:56.450Z,11.40
2018-04-17T22:48:24.185Z,11.40
2018-04-17T22:50:58.435Z,11.50
2018-04-17T22:53:26.216Z,11.80
2018-04-17T22:55:58.024Z,11.40
2018-04-17T22:58:25.802Z,11.50
2018-04-17T23:01:03.847Z,11.10
2018-04-17T23:03:32.023Z,11.30
2018-04-17T23:06:24.052Z,11.20
2018-04-17T23:08:52.477Z,11.20
2018-04-17T23:11:24.680Z,11.10
2018-04-17T23:13:52.402Z,11.10
2018-04-17T23:16:21.168Z,11.10
2018-04-17T23:18:49.636Z,11.10
2018-04-17T23:24:05.007Z,11.00
2018-04-17T23:26:39.577Z,11.00
2018-04-17T23:29:07.270Z,10.80
2018-04-17T23:31:38.776Z,11.00
2018-04-17T23:34:06.861Z,10.90
2018-04-17T23:36:35.602Z,10.70
2018-04-17T23:39:03.384Z,11.00
2018-04-17T23:41:32.036Z,10.80
2018-04-17T23:43:59.783Z,11.00
2018-04-17T23:46:32.992Z,10.70
2018-04-17T23:49:01.119Z,10.80
2018-04-17T23:51:44.560Z,10.80
2018-04-17T23:54:13.040Z,10.80
2018-04-17T23:56:49.038Z,10.80
2018-04-17T23:59:16.734Z,10.70
